createdAt,value
2022-08-24T03:32:59.986Z,0.08
2022-08-24T03:36:03.026Z,1.10
2022-08-24T03:39:05.265Z,0.00
2022-08-24T03:42:07.990Z,0.10
2022-08-24T03:45:10.963Z,0.00
2022-08-24T03:48:15.524Z,0.20
2022-08-24T03:51:20.230Z,0.00
2022-08-24T03:54:23.158Z,0.50
2022-08-24T03:57:25.504Z,0.00
2022-08-24T04:00:28.015Z,0.15
2022-08-24T04:03:35.988Z,0.10
2022-08-24T04:06:44.160Z,0.00
2022-08-24T04:09:46.638Z,0.25
2022-08-24T04:12:48.958Z,0.13
2022-08-24T04:15:52.905Z,0.05
2022-08-24T04:18:57.792Z,0.22
2022-08-24T04:22:00.659Z,0.40
2022-08-24T04:25:08.903Z,0.00
2022-08-24T04:28:14.449Z,0.17
2022-08-24T04:31:18.212Z,0.17
2022-08-24T04:34:20.735Z,0.00
2022-08-24T04:37:28.170Z,0.10
2022-08-24T04:40:32.353Z,0.28
2022-08-24T04:43:35.777Z,0.00
2022-08-24T04:46:39.258Z,0.05
2022-08-24T04:49:43.438Z,0.10
2022-08-24T04:52:45.844Z,0.00
2022-08-24T04:55:51.246Z,0.10
2022-08-24T04:58:55.489Z,0.10
2022-08-24T05:01:57.731Z,0.22
2022-08-24T05:05:00.300Z,0.10
2022-08-24T05:08:02.722Z,0.10
2022-08-24T05:11:07.477Z,0.00
2022-08-24T05:14:11.158Z,0.00
2022-08-24T05:17:13.659Z,0.00
2022-08-24T05:20:17.395Z,0.20
2022-08-24T05:23:20.142Z,0.03
2022-08-24T05:26:24.991Z,0.20
2022-08-24T05:29:27.739Z,0.03
2022-08-24T05:32:30.059Z,0.45
2022-08-24T05:35:43.734Z,0.08
2022-08-24T05:38:47.947Z,0.00
2022-08-24T05:41:50.742Z,0.32
2022-08-24T05:44:53.273Z,0.10
2022-08-24T05:47:56.073Z,0.10
2022-08-24T05:50:59.567Z,0.47
2022-08-24T05:54:04.901Z,0.00
2022-08-24T05:57:08.282Z,0.10
2022-08-24T06:00:12.459Z,0.08
2022-08-24T06:03:17.835Z,0.10
2022-08-24T06:06:23.221Z,0.10
2022-08-24T06:09:26.435Z,0.50
2022-08-24T06:12:29.047Z,0.62
2022-08-24T06:15:31.246Z,0.10
2022-08-24T06:18:35.026Z,0.03
2022-08-24T06:21:40.965Z,0.88
2022-08-24T06:25:01.750Z,0.00
2022-08-24T06:28:04.022Z,0.17
2022-08-24T06:31:10.047Z,0.13
2022-08-24T06:34:14.830Z,0.03
2022-08-24T06:37:18.350Z,0.00
2022-08-24T06:40:21.154Z,0.30
2022-08-24T06:43:27.076Z,0.50
2022-08-24T06:52:40.038Z,0.15
2022-08-24T06:55:50.843Z,0.35
2022-08-24T06:58:53.069Z,0.90
2022-08-24T07:01:57.728Z,0.00
2022-08-24T07:08:09.523Z,0.15
2022-08-24T07:11:17.957Z,0.00
2022-08-24T07:14:21.642Z,0.00
2022-08-24T07:17:24.173Z,0.32
2022-08-24T07:20:30.280Z,0.00
2022-08-24T07:23:42.608Z,0.00
2022-08-24T07:26:45.394Z,0.00
2022-08-24T07:29:59.984Z,0.17
2022-08-24T07:33:11.275Z,0.10
2022-08-24T07:36:16.987Z,0.10
2022-08-24T07:39:25.528Z,0.17
2022-08-24T07:42:32.033Z,0.17
2022-08-24T07:45:35.483Z,0.45
2022-08-24T07:48:37.893Z,1.05
2022-08-24T07:51:43.765Z,0.28
2022-08-24T07:54:49.593Z,0.03
2022-08-24T07:57:52.671Z,0.10
2022-08-24T08:00:55.342Z,0.08
2022-08-24T08:03:57.867Z,0.00
2022-08-24T08:07:01.384Z,0.43
2022-08-24T08:10:04.766Z,0.82
2022-08-24T08:13:07.682Z,0.00
2022-08-24T08:16:11.744Z,0.20
2022-08-24T08:19:14.187Z,0.03
2022-08-24T08:22:35.805Z,0.52
2022-08-24T08:25:54.534Z,0.10
2022-08-24T08:28:58.026Z,0.37
2022-08-24T08:32:00.642Z,0.13
2022-08-24T08:35:03.646Z,0.85
2022-08-24T08:38:07.539Z,0.00
2022-08-24T08:41:39.573Z,0.05
2022-08-24T08:44:49.690Z,0.00
2022-08-24T08:48:36.597Z,0.00
2022-08-24T08:55:21.209Z,0.10
2022-08-24T08:59:04.252Z,0.20
2022-08-24T09:02:49.873Z,0.10
2022-08-24T09:06:06.167Z,0.00
2022-08-24T09:09:40.903Z,0.37
2022-08-24T09:12:45.783Z,0.05
2022-08-24T09:19:35.318Z,0.68
2022-08-24T09:22:43.627Z,0.60
2022-08-24T09:26:03.767Z,0.13
2022-08-24T09:29:17.267Z,0.00
2022-08-24T09:33:00.170Z,0.20
2022-08-24T09:36:14.860Z,0.05
2022-08-24T09:39:27.023Z,0.00
2022-08-24T09:42:49.282Z,0.70
2022-08-24T09:46:29.076Z,0.65
2022-08-24T09:50:19.821Z,0.10
2022-08-24T09:53:47.525Z,0.00
2022-08-24T09:57:11.991Z,0.10
2022-08-24T10:00:24.007Z,0.20
2022-08-24T10:03:38.488Z,0.00
2022-08-24T10:06:59.919Z,0.00
2022-08-24T10:10:20.371Z,0.00
2022-08-24T10:13:39.944Z,0.10
2022-08-24T10:17:08.917Z,91.03
2022-08-24T10:20:56.827Z,428.05
2022-08-24T10:24:20.704Z,424.12
2022-08-24T10:27:43.972Z,417.30
2022-08-24T10:30:57.734Z,414.42
2022-08-24T10:34:31.935Z,412.95
2022-08-24T10:38:19.519Z,417.45
2022-08-24T10:41:24.703Z,415.73
2022-08-24T10:44:53.514Z,407.15
2022-08-24T10:48:12.604Z,407.20
2022-08-24T10:51:40.100Z,393.80
2022-08-24T10:54:42.738Z,401.23
2022-08-24T10:58:23.632Z,405.00
2022-08-24T11:01:33.929Z,399.62
2022-08-24T11:04:37.329Z,401.17
2022-08-24T11:07:58.331Z,404.83
2022-08-24T11:11:13.106Z,406.20
2022-08-24T11:14:15.124Z,411.80
2022-08-24T11:17:22.951Z,406.30
2022-08-24T11:20:36.374Z,398.05
2022-08-24T11:23:42.747Z,407.77
2022-08-24T11:27:06.930Z,394.58
2022-08-24T11:30:18.407Z,388.27
2022-08-24T11:33:35.454Z,400.17
2022-08-24T11:36:39.065Z,408.42
2022-08-24T11:39:41.217Z,401.95
2022-08-24T11:42:44.110Z,412.80
2022-08-24T11:46:46.643Z,420.40
